createdAt,value
2022-09-28T00:00:46.117Z,992.28
2022-09-28T00:01:46.213Z,992.29
2022-09-28T00:02:46.303Z,992.33
2022-09-28T00:03:46.076Z,992.33
2022-09-28T00:04:46.061Z,992.23
2022-09-28T00:05:46.050Z,992.24
2022-09-28T00:06:46.042Z,992.32
2022-09-28T00:07:46.034Z,992.28
2022-09-28T00:08:46.042Z,992.26
2022-09-28T00:09:46.026Z,992.27
2022-09-28T00:10:46.003Z,992.28
2022-09-28T00:11:45.990Z,992.25
2022-09-28T00:12:45.964Z,992.21
2022-09-28T00:13:45.956Z,992.24
2022-09-28T00:14:45.975Z,992.22
2022-09-28T00:15:45.936Z,992.19
2022-09-28T00:16:45.930Z,992.15
2022-09-28T00:17:45.906Z,992.18
2022-09-28T00:18:45.892Z,992.17
2022-09-28T00:19:45.875Z,992.12
2022-09-28T00:20:45.886Z,992.09
2022-09-28T00:21:45.850Z,992.14
2022-09-28T00:22:45.837Z,992.16
2022-09-28T00:23:45.837Z,992.15
2022-09-28T00:24:45.797Z,992.14
2022-09-28T00:25:45.808Z,992.11
2022-09-28T00:26:45.814Z,992.13
2022-09-28T00:27:45.778Z,992.14
2022-09-28T00:28:45.759Z,992.14
2022-09-28T00:29:45.750Z,992.12
2022-09-28T00:30:45.739Z,992.09
2022-09-28T00:31:45.802Z,992.06
2022-09-28T00:32:45.743Z,992.09
2022-09-28T00:33:45.708Z,992.11
2022-09-28T00:34:45.712Z,992.09
2022-09-28T00:35:45.672Z,992.06
2022-09-28T00:36:45.650Z,992.09
2022-09-28T00:37:45.640Z,992.07
2022-09-28T00:38:45.663Z,992.07
2022-09-28T00:39:45.621Z,992.07
2022-09-28T00:40:45.697Z,992.09
2022-09-28T00:41:45.593Z,992.05
2022-09-28T00:42:45.574Z,992.04
2022-09-28T00:43:45.574Z,992.00
2022-09-28T00:44:45.583Z,992.03
2022-09-28T00:45:45.586Z,992.11
2022-09-28T00:46:45.525Z,991.98
2022-09-28T00:47:45.525Z,991.97
2022-09-28T00:48:45.510Z,992.06
2022-09-28T00:49:45.498Z,991.98
2022-09-28T00:50:45.505Z,992.02
2022-09-28T00:51:45.477Z,991.99
2022-09-28T00:52:45.446Z,991.97
2022-09-28T00:53:45.445Z,992.05
2022-09-28T00:54:45.429Z,991.99
2022-09-28T00:55:45.413Z,992.00
2022-09-28T00:56:45.437Z,991.92
2022-09-28T00:57:45.388Z,991.97
2022-09-28T00:58:45.376Z,991.95
2022-09-28T00:59:45.370Z,991.98
2022-09-28T01:00:45.397Z,991.97
2022-09-28T01:01:45.373Z,991.94
2022-09-28T01:02:45.349Z,991.95
2022-09-28T01:03:45.324Z,991.97
2022-09-28T01:04:45.337Z,991.90
2022-09-28T01:05:45.290Z,991.91
2022-09-28T01:06:45.272Z,991.88
2022-09-28T01:07:45.268Z,991.91
2022-09-28T01:08:45.369Z,991.91
2022-09-28T01:09:45.250Z,991.91
2022-09-28T01:10:45.223Z,991.89
2022-09-28T01:11:45.210Z,991.88
2022-09-28T01:12:45.194Z,991.80
2022-09-28T01:13:45.185Z,991.89
2022-09-28T01:14:45.205Z,991.83
2022-09-28T01:15:45.159Z,991.82
2022-09-28T01:16:45.218Z,991.84
2022-09-28T01:17:45.133Z,991.85
2022-09-28T01:18:45.122Z,991.80
2022-09-28T01:19:45.137Z,991.78
2022-09-28T01:20:45.123Z,991.88
2022-09-28T01:21:45.082Z,991.84
2022-09-28T01:22:45.074Z,991.84
2022-09-28T01:23:45.055Z,991.81
2022-09-28T01:24:45.075Z,991.79
2022-09-28T01:25:45.040Z,991.81
2022-09-28T01:26:45.105Z,991.81
2022-09-28T01:27:45.005Z,991.73
2022-09-28T01:28:44.995Z,991.75
2022-09-28T01:29:44.976Z,991.83
2022-09-28T01:30:44.974Z,991.80
2022-09-28T01:31:44.986Z,991.84
2022-09-28T01:32:44.976Z,991.80
2022-09-28T01:33:44.937Z,991.80
2022-09-28T01:34:44.918Z,991.81
2022-09-28T01:35:44.907Z,991.78
2022-09-28T01:36:44.900Z,991.79
2022-09-28T01:37:44.877Z,991.79
2022-09-28T01:38:44.898Z,991.77
2022-09-28T01:39:44.850Z,991.75
2022-09-28T01:40:44.870Z,991.78
2022-09-28T01:41:44.822Z,991.78
2022-09-28T01:42:44.819Z,991.73
2022-09-28T01:43:44.800Z,991.78
2022-09-28T01:44:44.822Z,991.69
2022-09-28T01:45:44.782Z,991.76
2022-09-28T01:46:44.860Z,991.72
2022-09-28T01:47:44.751Z,991.76
2022-09-28T01:48:44.732Z,991.70
2022-09-28T01:49:44.721Z,991.73
2022-09-28T01:50:44.742Z,991.74
2022-09-28T01:51:44.691Z,991.72
2022-09-28T01:52:44.695Z,991.72
2022-09-28T01:53:44.672Z,991.69
2022-09-28T01:54:44.663Z,991.74
2022-09-28T01:55:44.657Z,991.74
2022-09-28T01:56:44.657Z,991.76
2022-09-28T01:57:44.613Z,991.75
2022-09-28T01:58:44.605Z,991.70
2022-09-28T01:59:44.609Z,991.69
2022-09-28T02:00:44.636Z,991.70
2022-09-28T02:01:44.598Z,991.75
2022-09-28T02:02:44.595Z,991.69
2022-09-28T02:03:44.545Z,991.72
2022-09-28T02:04:44.542Z,991.66
2022-09-28T02:05:44.519Z,991.65
2022-09-28T02:06:44.514Z,991.68
2022-09-28T02:07:44.496Z,991.67
2022-09-28T02:08:44.598Z,991.67
2022-09-28T02:09:44.474Z,991.70
2022-09-28T02:10:44.458Z,991.69
2022-09-28T02:11:44.471Z,991.67
2022-09-28T02:12:44.428Z,991.69
2022-09-28T02:13:44.430Z,991.66
2022-09-28T02:14:44.509Z,991.65
2022-09-28T02:15:44.398Z,991.66
2022-09-28T02:16:44.424Z,991.65
2022-09-28T02:17:44.370Z,991.68
2022-09-28T02:18:44.349Z,991.63
2022-09-28T02:19:44.341Z,991.60
2022-09-28T02:20:44.360Z,991.63
2022-09-28T02:21:44.312Z,991.64
2022-09-28T02:22:44.301Z,991.63
2022-09-28T02:23:44.292Z,991.69
2022-09-28T02:24:44.272Z,991.64
2022-09-28T02:25:44.262Z,991.63
2022-09-28T02:26:44.284Z,991.63
2022-09-28T02:27:44.239Z,991.65
2022-09-28T02:28:44.231Z,991.63
2022-09-28T02:29:44.213Z,991.63
2022-09-28T02:30:44.203Z,991.64
2022-09-28T02:31:44.247Z,991.66
2022-09-28T02:32:44.213Z,991.58
2022-09-28T02:33:44.165Z,991.57
2022-09-28T02:34:44.149Z,991.64
2022-09-28T02:35:44.143Z,991.68
2022-09-28T02:36:44.135Z,991.65
2022-09-28T02:37:44.117Z,991.63
2022-09-28T02:38:44.125Z,991.66
2022-09-28T02:39:44.090Z,991.65
2022-09-28T02:40:44.083Z,991.65
2022-09-28T02:41:44.056Z,991.69
2022-09-28T02:42:44.046Z,991.66
2022-09-28T02:43:44.043Z,991.65
2022-09-28T02:44:44.037Z,991.67
2022-09-28T02:45:44.058Z,991.71
2022-09-28T02:46:43.999Z,991.67
2022-09-28T02:47:43.981Z,991.68
2022-09-28T02:48:45.717Z,991.77
2022-09-28T02:49:44.981Z,991.71
2022-09-28T02:50:43.948Z,991.65
2022-09-28T02:51:43.942Z,991.65
2022-09-28T02:52:43.934Z,991.72
2022-09-28T02:53:43.934Z,991.77
2022-09-28T02:54:43.910Z,991.66
2022-09-28T02:55:43.914Z,991.75
2022-09-28T02:56:43.876Z,991.69
2022-09-28T02:57:43.854Z,991.68
2022-09-28T02:58:43.852Z,991.69
2022-09-28T02:59:43.836Z,991.68
2022-09-28T03:00:43.844Z,991.68
2022-09-28T03:01:43.969Z,991.70
2022-09-28T03:02:43.804Z,991.67
2022-09-28T03:03:43.783Z,991.75
2022-09-28T03:04:43.772Z,991.69
2022-09-28T03:05:43.754Z,991.66
2022-09-28T03:06:43.743Z,991.66
2022-09-28T03:07:43.767Z,991.62
2022-09-28T03:08:43.718Z,991.69
2022-09-28T03:09:43.704Z,991.65
2022-09-28T03:10:43.684Z,991.65
2022-09-28T03:11:43.682Z,991.71
2022-09-28T03:12:43.665Z,991.67
2022-09-28T03:13:43.685Z,991.67
2022-09-28T03:14:43.650Z,991.67
2022-09-28T03:15:48.403Z,991.69
2022-09-28T03:16:44.708Z,991.58
2022-09-28T03:17:43.603Z,991.70
2022-09-28T03:18:43.594Z,991.64
2022-09-28T03:19:43.609Z,991.68
2022-09-28T03:20:43.566Z,991.66
2022-09-28T03:21:43.550Z,991.69
2022-09-28T03:22:51.942Z,991.74
2022-09-28T03:23:44.533Z,991.67
2022-09-28T03:24:43.521Z,991.70
2022-09-28T03:25:43.619Z,991.73
2022-09-28T03:26:43.492Z,991.67
2022-09-28T03:27:43.469Z,991.64
2022-09-28T03:28:43.460Z,991.69
2022-09-28T03:29:43.451Z,991.68
2022-09-28T03:30:43.450Z,991.77
2022-09-28T03:31:43.458Z,991.66
2022-09-28T03:32:43.410Z,991.66
2022-09-28T03:33:43.401Z,991.68
2022-09-28T03:34:43.382Z,991.73
2022-09-28T03:35:43.371Z,991.73
2022-09-28T03:36:43.355Z,991.75
2022-09-28T03:37:43.362Z,991.68
2022-09-28T03:38:43.333Z,991.70
2022-09-28T03:39:43.312Z,991.74
2022-09-28T03:40:43.390Z,991.77
2022-09-28T03:41:43.294Z,991.74
2022-09-28T03:42:43.289Z,991.75
2022-09-28T03:43:43.283Z,991.78
2022-09-28T03:44:43.261Z,991.80
2022-09-28T03:45:43.279Z,991.74
2022-09-28T03:46:43.224Z,991.79
2022-09-28T03:47:43.215Z,991.78
2022-09-28T03:48:43.236Z,991.80
2022-09-28T03:49:43.224Z,991.75
2022-09-28T03:50:43.177Z,991.77
2022-09-28T03:51:43.166Z,991.80
2022-09-28T03:52:43.152Z,991.74
2022-09-28T03:53:43.135Z,991.79
2022-09-28T03:54:48.343Z,991.71
2022-09-28T03:55:44.137Z,991.77
2022-09-28T03:56:43.097Z,991.69
2022-09-28T03:57:43.096Z,991.75
2022-09-28T03:58:43.098Z,991.66
2022-09-28T03:59:43.086Z,991.75
2022-09-28T04:00:43.105Z,991.65
2022-09-28T04:01:43.205Z,991.77
2022-09-28T04:02:43.028Z,991.69
2022-09-28T04:03:43.008Z,991.76
2022-09-28T04:04:43.008Z,991.73
2022-09-28T04:05:42.995Z,991.69
2022-09-28T04:06:42.970Z,991.74
2022-09-28T04:07:42.978Z,991.68
2022-09-28T04:08:42.971Z,991.65
2022-09-28T04:09:42.939Z,991.67
2022-09-28T04:10:42.930Z,991.67
2022-09-28T04:11:59.689Z,991.65
2022-09-28T04:12:43.942Z,991.69
2022-09-28T04:13:43.830Z,991.73
2022-09-28T04:14:42.870Z,991.67
2022-09-28T04:15:42.870Z,991.73
2022-09-28T04:16:42.870Z,991.82
2022-09-28T04:17:42.832Z,991.71
2022-09-28T04:18:42.852Z,991.73
2022-09-28T04:19:42.813Z,991.72
2022-09-28T04:20:42.793Z,991.71
2022-09-28T04:21:42.775Z,991.71
2022-09-28T04:22:42.857Z,991.77
2022-09-28T04:23:42.811Z,991.69
2022-09-28T04:24:42.790Z,991.73
2022-09-28T04:25:42.778Z,991.76
2022-09-28T04:26:42.723Z,991.73
2022-09-28T04:27:42.708Z,991.84
2022-09-28T04:28:42.702Z,991.81
2022-09-28T04:29:42.678Z,991.79
2022-09-28T04:30:42.688Z,991.78
2022-09-28T04:31:42.748Z,991.82
2022-09-28T04:32:42.640Z,991.81
2022-09-28T04:33:42.644Z,991.82
2022-09-28T04:34:44.346Z,991.82
2022-09-28T04:35:42.599Z,991.84
2022-09-28T04:36:42.639Z,991.83
2022-09-28T04:37:42.572Z,991.89
2022-09-28T04:38:52.897Z,991.87
2022-09-28T04:39:47.591Z,991.87
2022-09-28T04:40:43.581Z,991.79
2022-09-28T04:41:42.521Z,991.93
2022-09-28T04:42:42.542Z,991.87
2022-09-28T04:43:42.492Z,991.84
2022-09-28T04:44:42.487Z,991.84
2022-09-28T04:45:42.509Z,991.85
2022-09-28T04:46:42.463Z,991.90
2022-09-28T04:47:42.453Z,991.90
2022-09-28T04:48:42.483Z,991.88
2022-09-28T04:49:42.427Z,991.87
2022-09-28T04:50:42.414Z,991.87
2022-09-28T04:51:42.418Z,991.87
2022-09-28T04:52:42.418Z,991.84
2022-09-28T04:53:42.364Z,991.86
2022-09-28T04:54:42.575Z,991.88
2022-09-28T04:55:42.346Z,991.87
2022-09-28T04:56:42.355Z,991.91
2022-09-28T04:57:42.334Z,991.84
2022-09-28T04:58:42.312Z,991.92
2022-09-28T04:59:42.287Z,991.90
2022-09-28T05:00:42.366Z,991.81
2022-09-28T05:01:42.266Z,991.90
2022-09-28T05:02:42.292Z,991.84
2022-09-28T05:03:42.237Z,991.83
2022-09-28T05:04:42.239Z,991.92
2022-09-28T05:05:42.227Z,991.84
2022-09-28T05:06:42.329Z,991.85
2022-09-28T05:07:42.367Z,991.94
2022-09-28T05:08:42.189Z,991.90
2022-09-28T05:09:42.159Z,991.89
2022-09-28T05:10:42.162Z,991.87
2022-09-28T05:11:42.152Z,991.89
2022-09-28T05:12:42.169Z,991.92
2022-09-28T05:13:42.116Z,991.89
2022-09-28T05:14:42.099Z,991.95
2022-09-28T05:15:42.113Z,991.91
2022-09-28T05:16:42.176Z,991.88
2022-09-28T05:17:42.066Z,991.93
2022-09-28T05:18:42.089Z,991.91
2022-09-28T05:19:42.032Z,991.90
2022-09-28T05:20:42.021Z,991.91
2022-09-28T05:21:42.025Z,991.93
2022-09-28T05:22:42.003Z,991.91
2022-09-28T05:23:41.989Z,991.95
2022-09-28T05:24:41.995Z,991.92
2022-09-28T05:25:41.964Z,991.95
2022-09-28T05:26:41.943Z,991.95
2022-09-28T05:27:41.943Z,991.91
2022-09-28T05:28:41.935Z,991.89
2022-09-28T05:29:41.913Z,991.93
2022-09-28T05:30:41.936Z,991.95
2022-09-28T05:31:41.924Z,991.90
2022-09-28T05:32:41.893Z,991.92
2022-09-28T05:33:41.861Z,991.93
2022-09-28T05:34:41.846Z,991.85
2022-09-28T05:35:41.837Z,991.86
2022-09-28T05:36:41.858Z,991.89
2022-09-28T05:37:41.819Z,991.84
2022-09-28T05:38:41.817Z,991.82
2022-09-28T05:39:41.778Z,991.78
2022-09-28T05:40:41.813Z,991.82
2022-09-28T05:41:41.760Z,991.87
2022-09-28T05:42:41.769Z,991.82
2022-09-28T05:43:41.730Z,991.79
2022-09-28T05:44:41.717Z,991.81
2022-09-28T05:45:41.746Z,991.85
2022-09-28T05:46:41.693Z,991.77
2022-09-28T05:47:41.683Z,991.87
2022-09-28T05:48:41.706Z,991.83
2022-09-28T05:49:41.652Z,991.91
2022-09-28T05:50:41.641Z,991.81
2022-09-28T05:51:41.705Z,991.86
2022-09-28T05:52:41.611Z,991.80
2022-09-28T05:53:41.602Z,991.84
2022-09-28T05:54:41.613Z,991.86
2022-09-28T05:55:41.584Z,991.81
2022-09-28T05:56:41.572Z,991.80
2022-09-28T05:57:41.557Z,991.83
2022-09-28T05:58:41.543Z,991.82
2022-09-28T05:59:41.536Z,991.82
2022-09-28T06:00:41.536Z,991.84
2022-09-28T06:01:41.580Z,991.88
2022-09-28T06:02:41.577Z,991.84
2022-09-28T06:03:41.493Z,991.84
2022-09-28T06:04:41.466Z,991.88
2022-09-28T06:05:41.457Z,991.84
2022-09-28T06:06:41.469Z,991.89
2022-09-28T06:07:41.435Z,991.84
2022-09-28T06:08:41.417Z,991.89
2022-09-28T06:09:41.437Z,991.84
2022-09-28T06:10:41.391Z,991.87
2022-09-28T06:11:41.768Z,991.90
2022-09-28T06:12:41.468Z,991.90
2022-09-28T06:13:41.347Z,991.87
2022-09-28T06:14:41.332Z,991.94
2022-09-28T06:15:41.335Z,991.89
2022-09-28T06:16:43.864Z,991.91
2022-09-28T06:17:41.303Z,991.98
2022-09-28T06:18:41.413Z,991.97
2022-09-28T06:19:41.280Z,991.95
2022-09-28T06:20:41.283Z,992.05
2022-09-28T06:21:41.272Z,992.06
2022-09-28T06:22:41.238Z,992.04
2022-09-28T06:23:43.625Z,992.08
2022-09-28T06:24:42.332Z,992.06
2022-09-28T06:25:41.201Z,992.04
2022-09-28T06:26:41.202Z,992.11
2022-09-28T06:27:41.173Z,992.05
2022-09-28T06:28:41.964Z,992.14
2022-09-28T06:29:41.152Z,992.09
2022-09-28T06:30:41.337Z,992.16
2022-09-28T06:31:41.126Z,992.11
2022-09-28T06:32:41.899Z,992.13
2022-09-28T06:33:41.101Z,992.14
2022-09-28T06:34:41.890Z,992.13
2022-09-28T06:35:41.082Z,992.14
2022-09-28T06:36:41.213Z,992.13
2022-09-28T06:37:41.055Z,992.09
2022-09-28T06:38:41.044Z,992.13
2022-09-28T06:39:42.464Z,992.21
2022-09-28T06:40:41.040Z,992.19
2022-09-28T06:41:41.008Z,992.21
2022-09-28T06:42:41.786Z,992.20
2022-09-28T06:43:41.528Z,992.20
2022-09-28T06:44:40.964Z,992.20
2022-09-28T06:45:41.015Z,992.16
2022-09-28T06:46:40.941Z,992.22
2022-09-28T06:47:41.101Z,992.26
2022-09-28T06:48:41.737Z,992.24
2022-09-28T06:49:40.900Z,992.25
2022-09-28T06:50:40.907Z,992.31
2022-09-28T06:51:40.897Z,992.26
2022-09-28T06:52:40.859Z,992.25
2022-09-28T06:53:40.839Z,992.31
2022-09-28T06:54:40.859Z,992.23
2022-09-28T06:55:40.819Z,992.27
2022-09-28T06:56:40.947Z,992.28
2022-09-28T06:57:41.596Z,992.26
2022-09-28T06:58:41.584Z,992.26
2022-09-28T06:59:40.878Z,992.31
2022-09-28T07:00:40.800Z,992.26
2022-09-28T07:01:40.830Z,992.27
2022-09-28T07:02:40.785Z,992.28
2022-09-28T07:03:40.723Z,992.29
2022-09-28T07:04:41.500Z,992.39
2022-09-28T07:05:40.703Z,992.37
2022-09-28T07:06:40.805Z,992.35
2022-09-28T07:07:40.668Z,992.33
2022-09-28T07:08:40.658Z,992.33
2022-09-28T07:09:43.834Z,992.41
2022-09-28T07:10:41.636Z,992.47
2022-09-28T07:11:40.625Z,992.43
2022-09-28T07:12:40.724Z,992.47
2022-09-28T07:13:56.006Z,992.54
2022-09-28T07:14:47.929Z,992.43
2022-09-28T07:15:40.594Z,992.47
2022-09-28T07:17:05.390Z,992.52
2022-09-28T07:17:56.726Z,992.53
2022-09-28T07:18:41.535Z,992.55
2022-09-28T07:19:40.580Z,992.51
2022-09-28T07:20:51.045Z,992.54
2022-09-28T07:21:42.387Z,992.56
2022-09-28T07:22:43.764Z,992.61
2022-09-28T07:23:50.827Z,992.59
2022-09-28T07:24:42.249Z,992.59
2022-09-28T07:25:40.441Z,992.58
2022-09-28T07:26:40.443Z,992.66
2022-09-28T07:27:41.388Z,992.59
2022-09-28T07:28:40.410Z,992.67
2022-09-28T07:29:40.448Z,992.64
2022-09-28T07:30:40.544Z,992.66
2022-09-28T07:31:40.372Z,992.69
2022-09-28T07:32:40.469Z,992.69
2022-09-28T07:33:40.378Z,992.68
2022-09-28T07:34:40.330Z,992.72
2022-09-28T07:35:40.357Z,992.73
2022-09-28T07:36:40.313Z,992.68
2022-09-28T07:37:40.282Z,992.63
2022-09-28T07:38:41.062Z,992.65
2022-09-28T07:39:40.272Z,992.70
2022-09-28T07:40:41.134Z,992.68
2022-09-28T07:41:40.274Z,992.70
2022-09-28T07:42:40.224Z,992.74
2022-09-28T07:43:40.230Z,992.81
2022-09-28T07:44:40.193Z,992.78
2022-09-28T07:45:40.246Z,992.80
2022-09-28T07:46:40.967Z,992.85
2022-09-28T07:47:40.194Z,992.81
2022-09-28T07:48:40.168Z,992.85
2022-09-28T07:49:40.163Z,992.85
2022-09-28T07:50:40.284Z,992.90
2022-09-28T07:51:40.925Z,992.89
2022-09-28T07:52:40.149Z,992.86
2022-09-28T07:53:40.126Z,992.88
2022-09-28T07:54:40.077Z,992.96
2022-09-28T07:55:40.061Z,992.88
2022-09-28T07:56:40.055Z,992.90
2022-09-28T07:57:40.052Z,992.88
2022-09-28T07:58:40.070Z,992.88
2022-09-28T07:59:40.048Z,992.86
2022-09-28T08:00:39.998Z,992.88
2022-09-28T08:01:40.055Z,992.88
2022-09-28T08:02:40.063Z,992.85
2022-09-28T08:03:39.970Z,992.90
2022-09-28T08:04:39.943Z,992.92
2022-09-28T08:05:40.060Z,992.92
2022-09-28T08:06:39.989Z,992.96
2022-09-28T08:07:39.955Z,992.95
2022-09-28T08:08:40.001Z,992.98
2022-09-28T08:09:39.890Z,993.03
2022-09-28T08:10:43.376Z,992.99
2022-09-28T08:11:41.252Z,992.97
2022-09-28T08:12:39.857Z,992.98
2022-09-28T08:13:39.864Z,992.97
2022-09-28T08:14:39.833Z,992.99
2022-09-28T08:15:39.836Z,993.03
2022-09-28T08:16:39.807Z,993.05
2022-09-28T08:17:39.813Z,993.04
2022-09-28T08:18:39.786Z,992.99
2022-09-28T08:19:39.775Z,993.02
2022-09-28T08:20:39.987Z,993.08
2022-09-28T08:21:39.743Z,993.06
2022-09-28T08:22:39.737Z,992.97
2022-09-28T08:23:39.738Z,993.00
2022-09-28T08:24:39.702Z,992.99
2022-09-28T08:25:39.686Z,992.98
2022-09-28T08:26:39.743Z,992.92
2022-09-28T08:27:39.666Z,992.98
2022-09-28T08:28:39.656Z,993.00
2022-09-28T08:29:39.679Z,993.05
2022-09-28T08:30:39.651Z,993.05
2022-09-28T08:31:39.617Z,993.06
2022-09-28T08:32:39.620Z,993.07
2022-09-28T08:33:39.601Z,993.16
2022-09-28T08:34:39.581Z,993.16
2022-09-28T08:35:39.580Z,993.10
2022-09-28T08:36:39.549Z,993.14
2022-09-28T08:37:39.555Z,993.19
2022-09-28T08:38:39.519Z,993.15
2022-09-28T08:39:39.510Z,993.18
2022-09-28T08:40:39.527Z,993.19
2022-09-28T08:41:39.514Z,993.16
2022-09-28T08:42:39.471Z,993.12
2022-09-28T08:43:39.452Z,993.14
2022-09-28T08:44:39.525Z,993.18
2022-09-28T08:45:39.465Z,993.17
2022-09-28T08:46:39.424Z,993.15
2022-09-28T08:47:39.512Z,993.14
2022-09-28T08:48:39.402Z,993.19
2022-09-28T08:49:39.392Z,993.21
2022-09-28T08:50:39.376Z,993.17
2022-09-28T08:51:39.355Z,993.17
2022-09-28T08:52:39.366Z,993.24
2022-09-28T08:53:39.365Z,993.27
2022-09-28T08:54:39.326Z,993.31
2022-09-28T08:55:39.323Z,993.30
2022-09-28T08:56:39.333Z,993.32
2022-09-28T08:57:39.286Z,993.31
2022-09-28T08:58:39.266Z,993.36
2022-09-28T08:59:39.378Z,993.36
2022-09-28T09:00:39.249Z,993.38
2022-09-28T09:01:39.283Z,993.38
2022-09-28T09:02:39.312Z,993.35
2022-09-28T09:03:39.208Z,993.39
2022-09-28T09:04:39.220Z,993.42
2022-09-28T09:05:39.237Z,993.40
2022-09-28T09:06:39.186Z,993.44
2022-09-28T09:07:39.182Z,993.45
2022-09-28T09:08:39.140Z,993.43
2022-09-28T09:09:39.139Z,993.51
2022-09-28T09:10:39.145Z,993.50
2022-09-28T09:11:39.142Z,993.47
2022-09-28T09:12:39.113Z,993.45
2022-09-28T09:13:39.110Z,993.53
2022-09-28T09:14:39.104Z,993.54
2022-09-28T09:15:39.081Z,993.52
2022-09-28T09:16:39.097Z,993.53
2022-09-28T09:17:39.062Z,993.66
2022-09-28T09:18:39.024Z,993.61
2022-09-28T09:19:39.033Z,993.62
2022-09-28T09:20:38.996Z,993.55
2022-09-28T09:21:38.974Z,993.63
2022-09-28T09:22:38.976Z,993.57
2022-09-28T09:23:39.058Z,993.57
2022-09-28T09:24:38.947Z,993.54
2022-09-28T09:25:38.931Z,993.60
2022-09-28T09:26:38.915Z,993.58
2022-09-28T09:27:38.908Z,993.57
2022-09-28T09:28:38.888Z,993.62
2022-09-28T09:29:38.921Z,993.66
2022-09-28T09:30:38.906Z,993.65
2022-09-28T09:31:38.867Z,993.64
2022-09-28T09:32:38.958Z,993.64
2022-09-28T09:33:38.845Z,993.60
2022-09-28T09:34:38.810Z,993.66
2022-09-28T09:35:38.940Z,993.57
2022-09-28T09:36:38.820Z,993.64
2022-09-28T09:37:38.779Z,993.62
2022-09-28T09:38:38.768Z,993.70
2022-09-28T09:39:38.751Z,993.73
2022-09-28T09:40:38.836Z,993.62
2022-09-28T09:41:38.910Z,993.65
2022-09-28T09:42:38.723Z,993.64
2022-09-28T09:43:38.712Z,993.66
2022-09-28T09:44:38.722Z,993.71
2022-09-28T09:45:38.717Z,993.72
2022-09-28T09:46:38.673Z,993.70
2022-09-28T09:47:38.714Z,993.69
2022-09-28T09:48:38.656Z,993.74
2022-09-28T09:49:38.623Z,993.68
2022-09-28T09:50:38.617Z,993.66
2022-09-28T09:51:38.613Z,993.68
2022-09-28T09:52:41.051Z,993.68
2022-09-28T09:53:39.615Z,993.73
2022-09-28T09:54:38.584Z,993.72
2022-09-28T09:55:38.547Z,993.70
2022-09-28T09:56:38.539Z,993.67
2022-09-28T09:57:38.527Z,993.72
2022-09-28T09:58:39.305Z,993.74
2022-09-28T09:59:38.626Z,993.70
2022-09-28T10:00:39.269Z,993.72
2022-09-28T10:01:39.290Z,993.71
2022-09-28T10:02:39.332Z,993.73
2022-09-28T10:03:39.238Z,993.71
2022-09-28T10:04:39.219Z,993.67
2022-09-28T10:05:39.249Z,993.64
2022-09-28T10:06:39.189Z,993.67
2022-09-28T10:07:43.100Z,993.65
2022-09-28T10:08:38.390Z,993.68
2022-09-28T10:09:39.175Z,993.67
2022-09-28T10:10:38.361Z,993.66
2022-09-28T10:11:38.811Z,993.74
2022-09-28T10:12:38.510Z,993.69
2022-09-28T10:13:38.325Z,993.68
2022-09-28T10:14:38.322Z,993.69
2022-09-28T10:15:38.303Z,993.67
2022-09-28T10:16:38.547Z,993.71
2022-09-28T10:17:38.298Z,993.74
2022-09-28T10:18:38.270Z,993.77
2022-09-28T10:19:38.253Z,993.67
2022-09-28T10:20:38.253Z,993.75
2022-09-28T10:21:38.223Z,993.71
2022-09-28T10:22:38.207Z,993.68
2022-09-28T10:23:38.327Z,993.75
2022-09-28T10:24:38.185Z,993.80
2022-09-28T10:25:38.167Z,993.71
2022-09-28T10:26:38.166Z,993.73
2022-09-28T10:27:38.139Z,993.76
2022-09-28T10:28:38.136Z,993.73
2022-09-28T10:29:38.147Z,993.78
2022-09-28T10:30:38.132Z,993.77
2022-09-28T10:31:39.048Z,993.74
2022-09-28T10:32:38.867Z,993.81
2022-09-28T10:33:38.857Z,993.76
2022-09-28T10:34:38.839Z,993.74
2022-09-28T10:35:38.158Z,993.80
2022-09-28T10:36:39.989Z,993.77
2022-09-28T10:37:38.807Z,993.82
2022-09-28T10:38:38.001Z,993.77
2022-09-28T10:39:38.021Z,993.84
2022-09-28T10:40:38.019Z,993.85
2022-09-28T10:41:38.770Z,993.81
2022-09-28T10:42:37.959Z,993.81
2022-09-28T10:43:37.931Z,993.82
2022-09-28T10:44:37.930Z,993.91
2022-09-28T10:45:37.979Z,993.90
2022-09-28T10:46:37.924Z,993.86
2022-09-28T10:47:38.805Z,993.90
2022-09-28T10:48:38.372Z,993.85
2022-09-28T10:49:37.855Z,993.87
2022-09-28T10:50:37.853Z,993.93
2022-09-28T10:51:38.064Z,993.92
2022-09-28T10:52:37.827Z,993.86
2022-09-28T10:53:37.954Z,993.82
2022-09-28T10:54:37.804Z,993.86
2022-09-28T10:55:37.802Z,993.79
2022-09-28T10:56:37.798Z,993.80
2022-09-28T10:57:37.769Z,993.78
2022-09-28T10:58:37.745Z,993.77
2022-09-28T10:59:37.865Z,993.87
2022-09-28T11:00:37.750Z,993.78
2022-09-28T11:01:37.774Z,993.78
2022-09-28T11:02:37.747Z,993.85
2022-09-28T11:03:37.677Z,993.82
2022-09-28T11:04:37.675Z,993.79
2022-09-28T11:05:37.910Z,993.77
2022-09-28T11:06:37.670Z,993.74
2022-09-28T11:07:37.659Z,993.85
2022-09-28T11:08:37.635Z,993.83
2022-09-28T11:09:37.671Z,993.79
2022-09-28T11:10:37.602Z,993.83
2022-09-28T11:11:38.410Z,993.83
2022-09-28T11:12:37.574Z,993.77
2022-09-28T11:13:37.567Z,993.88
2022-09-28T11:14:42.050Z,993.73
2022-09-28T11:15:38.606Z,993.80
2022-09-28T11:16:37.597Z,993.78
2022-09-28T11:17:37.572Z,993.83
2022-09-28T11:18:37.504Z,993.79
2022-09-28T11:19:37.494Z,993.80
2022-09-28T11:20:37.493Z,993.76
2022-09-28T11:21:38.248Z,993.79
2022-09-28T11:22:37.456Z,993.76
2022-09-28T11:23:37.497Z,993.75
2022-09-28T11:24:37.576Z,993.71
2022-09-28T11:25:37.481Z,993.80
2022-09-28T11:26:37.396Z,993.75
2022-09-28T11:27:37.388Z,993.80
2022-09-28T11:28:37.386Z,993.76
2022-09-28T11:29:37.460Z,993.64
2022-09-28T11:30:37.387Z,993.78
2022-09-28T11:31:37.328Z,993.73
2022-09-28T11:32:38.105Z,993.70
2022-09-28T11:33:37.308Z,993.71
2022-09-28T11:34:58.088Z,993.67
2022-09-28T11:35:39.104Z,993.75
2022-09-28T11:36:38.052Z,993.72
2022-09-28T11:37:38.046Z,993.70
2022-09-28T11:38:38.041Z,993.80
2022-09-28T11:39:38.023Z,993.74
2022-09-28T11:40:38.716Z,993.75
2022-09-28T11:41:38.132Z,993.77
2022-09-28T11:42:37.984Z,993.76
2022-09-28T11:43:37.962Z,993.75
2022-09-28T11:44:37.962Z,993.80
2022-09-28T11:45:37.995Z,993.82
2022-09-28T11:46:37.933Z,993.81
2022-09-28T11:47:37.948Z,993.77
2022-09-28T11:48:38.610Z,993.78
2022-09-28T11:49:37.134Z,993.82
2022-09-28T11:50:37.101Z,993.78
2022-09-28T11:51:37.066Z,993.86
2022-09-28T11:52:37.847Z,993.81
2022-09-28T11:53:37.864Z,993.74
2022-09-28T11:54:37.042Z,993.74
2022-09-28T11:55:37.018Z,993.77
2022-09-28T11:56:37.031Z,993.68
2022-09-28T11:57:36.992Z,993.73
2022-09-28T11:58:36.999Z,993.74
2022-09-28T11:59:36.995Z,993.77
2022-09-28T12:00:36.984Z,993.80
2022-09-28T12:01:37.224Z,993.77
2022-09-28T12:02:37.009Z,993.75
2022-09-28T12:03:36.993Z,993.75
2022-09-28T12:04:36.918Z,993.79
2022-09-28T12:05:36.937Z,993.80
2022-09-28T12:06:36.904Z,993.78
2022-09-28T12:07:36.881Z,993.75
2022-09-28T12:08:36.856Z,993.78
2022-09-28T12:09:36.845Z,993.83
2022-09-28T12:10:36.842Z,993.81
2022-09-28T12:11:36.866Z,993.81
2022-09-28T12:12:37.596Z,993.83
2022-09-28T12:13:36.804Z,993.86
2022-09-28T12:14:36.783Z,993.86
2022-09-28T12:15:59.231Z,993.89
2022-09-28T12:17:04.296Z,993.90
2022-09-28T12:17:37.800Z,993.83
2022-09-28T12:18:36.827Z,993.89
2022-09-28T12:19:36.716Z,993.85
2022-09-28T12:20:36.717Z,993.83
2022-09-28T12:21:36.768Z,993.83
2022-09-28T12:22:36.719Z,993.84
2022-09-28T12:23:36.659Z,993.80
2022-09-28T12:24:36.689Z,993.83
2022-09-28T12:25:37.431Z,993.80
2022-09-28T12:26:38.047Z,993.75
2022-09-28T12:27:37.400Z,993.83
2022-09-28T12:28:36.630Z,993.77